KNPA/NPA METAR and TAF weather

Enter ICAO airport designator
Station Type Date Time Source
KNPA METAR 2024/07/23 17:56 UTC NOAA

KNPA 231756Z 16008KT 10SM SCT025 BKN280 34/25 A3009 RMK SLP190 T2 SET T03440250 10344 20278 58002


Station Type Date Time Source
KNPA Decoded METAR 2024/07/23 17:56 UTC NOAA

Pensacola, Naval Air Station, FL, United States (KNPA) 30-21-22N 087-19-24W 10M
Jul 23, 2024 - 01:56 PM EDT / 2024.07.23 1756 UTC
Wind: from the SSE (160 degrees) at 9 MPH (8 KT):0
Visibility: 10 mile(s):0
Sky conditions: mostly cloudy
Temperature: 93.9 F (34.4 C)
Heat index: 108.3 F (42.4 C):1
Dew Point: 77.0 F (25.0 C)
Relative Humidity: 58%
Pressure (altimeter): 30.09 in. Hg (1018 hPa)
Pressure tendency: 0.01 inches (0.2 hPa) lower than three hours ago
ob: KNPA 231756Z 16008KT 10SM SCT025 BKN280 34/25 A3009 RMK SLP190 T2 SET T03440250 10344 20278 58002
cycle: 18

Station Type Date Time Source
KNPA TAF 2024/07/23 15:12 UTC NOAA